Time;durP1;ratioP1;P1;durP2;ratioP2;P2;SDS_P1;SDS_P2;PMS_P1;PMS_P2;Temp;Humidity;BMP_temperature;BMP_pressure;BME280_temperature;BME280_humidity;BME280_pressure;Samples;Min_cycle;Max_cycle;Signal;HPM_P1;HPM_P2
2022/11/03 00:01:13;;;;;;;10.47;4.30;;;;;;;5.68;93.52;101877.56;4968768;28;20203;-74
2022/11/03 00:03:38;;;;;;;9.77;4.23;;;;;;;5.70;92.73;101875.09;4972319;28;20302;-74
2022/11/03 00:06:04;;;;;;;12.43;4.13;;;;;;;5.66;92.67;101878.28;4970410;28;20189;-75
2022/11/03 00:08:37;;;;;;;10.27;3.80;;;;;;;5.66;92.66;101871.50;4968101;28;20704;-74
2022/11/03 00:11:05;;;;;;;7.60;3.43;;;;;;;5.60;92.69;101866.09;4971489;28;20658;-74
2022/11/03 00:13:31;;;;;;;9.23;3.80;;;;;;;5.64;92.63;101859.53;4966954;28;20232;-76
2022/11/03 00:15:56;;;;;;;14.93;4.17;;;;;;;5.62;93.03;101851.81;4970989;28;20192;-75
2022/11/03 00:18:21;;;;;;;11.50;4.40;;;;;;;5.56;92.87;101848.06;4970656;28;20238;-74
2022/11/03 00:20:57;;;;;;;8.50;4.07;;;;;;;5.58;92.95;101843.94;4969219;28;20287;-74
2022/11/03 00:23:27;;;;;;;8.37;3.67;;;;;;;5.55;93.91;101838.69;4971027;28;20356;-74
2022/11/03 00:25:52;;;;;;;9.37;3.47;;;;;;;5.56;93.60;101843.88;4968157;28;20201;-74
2022/11/03 00:28:18;;;;;;;8.20;4.10;;;;;;;5.53;93.46;101841.16;4966373;28;20200;-74
2022/11/03 00:30:43;;;;;;;7.80;4.20;;;;;;;5.52;92.81;101841.94;4969634;28;20807;-75
2022/11/03 00:33:09;;;;;;;10.73;3.93;;;;;;;5.51;93.42;101844.38;4967108;28;20235;-74
2022/11/03 00:35:34;;;;;;;11.33;4.30;;;;;;;5.48;93.62;101836.63;4967321;28;20764;-75
2022/11/03 00:38:00;;;;;;;12.53;4.00;;;;;;;5.49;93.94;101841.78;4970613;28;20188;-75
2022/11/03 00:40:25;;;;;;;6.80;3.63;;;;;;;5.46;93.63;101839.06;4946217;28;20307;-74
2022/11/03 00:42:50;;;;;;;10.80;3.73;;;;;;;5.39;93.65;101831.88;4965612;28;20204;-75
2022/11/03 00:45:16;;;;;;;13.57;4.50;;;;;;;5.44;93.41;101834.69;4968295;28;20199;-76
2022/11/03 00:48:28;;;;;;;9.03;4.03;;;;;;;5.45;93.75;101831.38;4955377;28;20810;-76
2022/11/03 00:50:27;;;;;;;7.73;3.90;;;;;;;5.46;93.62;101822.94;4968890;28;20669;-75
2022/11/03 00:52:53;;;;;;;7.70;4.03;;;;;;;5.44;93.97;101824.53;4968892;28;20235;-75
2022/11/03 00:55:18;;;;;;;12.17;4.07;;;;;;;5.46;93.55;101825.47;4967262;28;20200;-75
2022/11/03 00:57:44;;;;;;;11.87;4.57;;;;;;;5.40;93.83;101826.03;4966995;28;20193;-74
2022/11/03 01:00:10;;;;;;;9.47;3.83;;;;;;;5.43;93.80;101827.88;4964857;28;20503;-74
2022/11/03 01:02:36;;;;;;;6.17;3.70;;;;;;;5.48;93.67;101834.09;4967787;28;20203;-75
2022/11/03 01:07:45;;;;;;;8.93;4.37;;;;;;;5.56;94.83;101818.47;4959445;28;20181;-75
2022/11/03 01:10:11;;;;;;;6.43;3.50;;;;;;;5.52;95.10;101811.47;4965847;28;20579;-74
2022/11/03 01:12:36;;;;;;;7.20;3.30;;;;;;;5.52;94.99;101806.38;4947740;28;20687;-75
2022/11/03 01:15:02;;;;;;;6.10;3.67;;;;;;;5.51;94.51;101807.19;4970846;28;20646;-75
2022/11/03 01:17:27;;;;;;;9.30;4.03;;;;;;;5.55;94.63;101798.94;4967586;28;20292;-74
2022/11/03 01:19:53;;;;;;;7.63;3.53;;;;;;;5.57;94.58;101802.44;4965892;28;20604;-74
2022/11/03 01:22:20;;;;;;;7.93;3.60;;;;;;;5.58;95.47;101806.72;4965143;28;21124;-74
2022/11/03 01:24:46;;;;;;;5.60;3.80;;;;;;;5.57;94.89;101797.34;4963473;28;20664;-75
2022/11/03 01:27:14;;;;;;;5.93;3.43;;;;;;;5.55;95.09;101804.03;4969419;28;20196;-74
2022/11/03 01:29:40;;;;;;;8.10;3.60;;;;;;;5.55;95.09;101793.88;4968347;28;20191;-75
2022/11/03 01:32:07;;;;;;;10.83;3.50;;;;;;;5.59;95.20;101795.78;4967639;28;20196;-74
2022/11/03 01:34:33;;;;;;;7.87;3.40;;;;;;;5.57;94.50;101786.34;4969574;28;20231;-75
2022/11/03 01:36:58;;;;;;;5.60;2.87;;;;;;;5.56;94.30;101794.72;4966506;28;20185;-74
2022/11/03 01:39:23;;;;;;;6.67;2.90;;;;;;;5.57;94.83;101791.41;4964421;28;20184;-75
2022/11/03 01:41:50;;;;;;;7.60;3.27;;;;;;;5.57;94.20;101793.94;4968762;28;20189;-74
2022/11/03 01:44:15;;;;;;;8.13;3.50;;;;;;;5.60;94.80;101784.81;4966288;28;20204;-75
2022/11/03 01:47:00;;;;;;;11.87;3.80;;;;;;;5.64;94.31;101783.31;4967675;28;20199;-75
2022/11/03 01:49:40;;;;;;;10.33;3.27;;;;;;;5.65;94.54;101774.91;4968454;28;20192;-75
2022/11/03 01:52:17;;;;;;;5.87;3.10;;;;;;;5.76;95.23;101773.81;4967855;28;20537;-74
2022/11/03 01:54:47;;;;;;;6.67;3.57;;;;;;;5.83;95.76;101763.22;4965867;28;20220;-75
2022/11/03 01:57:22;;;;;;;12.97;3.13;;;;;;;5.92;95.39;101759.50;4965917;28;20188;-75
2022/11/03 01:59:48;;;;;;;9.43;3.60;;;;;;;6.01;95.36;101756.53;4968063;28;20220;-74
2022/11/03 02:02:21;;;;;;;9.63;3.63;;;;;;;6.00;95.95;101750.59;4968229;28;20262;-75
2022/11/03 02:04:47;;;;;;;7.23;3.33;;;;;;;6.01;95.15;101743.84;4968674;28;20330;-75
2022/11/03 02:07:15;;;;;;;8.90;3.50;;;;;;;6.05;95.85;101745.75;4968629;28;20181;-75
2022/11/03 02:09:40;;;;;;;8.83;3.07;;;;;;;6.04;95.99;101751.63;4967888;28;20275;-74
2022/11/03 02:12:08;;;;;;;10.27;3.17;;;;;;;6.03;95.45;101739.72;4970036;28;20271;-73
2022/11/03 02:14:38;;;;;;;6.20;3.17;;;;;;;6.04;95.42;101746.56;4969906;28;20291;-75
2022/11/03 02:17:08;;;;;;;8.20;3.73;;;;;;;6.11;95.32;101741.84;4972345;28;20271;-74
2022/11/03 02:19:46;;;;;;;9.37;3.40;;;;;;;6.20;94.97;101738.91;4970743;28;20677;-75
2022/11/03 02:22:36;;;;;;;7.53;2.90;;;;;;;6.26;95.56;101722.28;4956571;28;20184;-75
2022/11/03 02:25:17;;;;;;;7.80;3.47;;;;;;;6.30;95.41;101729.28;4971085;28;20188;-74
2022/11/03 02:27:43;;;;;;;8.53;3.60;;;;;;;6.39;94.52;101722.09;4970525;28;20192;-75
2022/11/03 02:30:09;;;;;;;7.33;3.47;;;;;;;6.46;94.71;101720.75;4972162;28;20208;-75
2022/11/03 02:32:57;;;;;;;7.30;2.90;;;;;;;6.48;94.56;101719.13;4970461;28;20204;-75
2022/11/03 02:35:36;;;;;;;7.13;2.87;;;;;;;6.53;94.62;101715.16;4972845;28;20188;-75
2022/11/03 02:38:07;;;;;;;10.30;3.73;;;;;;;6.60;94.26;101709.56;4972655;28;20226;-74
2022/11/03 02:40:37;;;;;;;10.47;3.00;;;;;;;6.60;93.91;101719.75;4971476;28;20204;-75
2022/11/03 02:43:04;;;;;;;9.70;3.50;;;;;;;6.59;94.44;101713.78;4973207;28;20219;-75
2022/11/03 02:45:30;;;;;;;7.13;2.60;;;;;;;6.59;94.00;101712.94;4970463;28;20189;-75
2022/11/03 02:48:01;;;;;;;7.50;3.07;;;;;;;6.62;94.21;101713.94;4972307;28;20185;-75
2022/11/03 02:50:29;;;;;;;8.53;3.00;;;;;;;6.66;94.32;101715.84;4971706;28;20764;-75
2022/11/03 02:52:55;;;;;;;6.53;2.67;;;;;;;6.69;93.51;101708.38;4973259;28;20251;-74
2022/11/03 02:55:38;;;;;;;12.17;3.30;;;;;;;6.70;93.51;101697.38;4954948;28;20696;-75
2022/11/03 02:58:15;;;;;;;15.17;4.03;;;;;;;6.74;93.42;101696.72;4971772;28;20243;-74
2022/11/03 03:00:50;;;;;;;10.40;3.03;;;;;;;6.76;93.76;101677.31;4963216;28;20290;-74
2022/11/03 03:03:26;;;;;;;7.70;2.97;;;;;;;6.78;93.75;101685.03;4973469;28;20298;-75
2022/11/03 03:06:01;;;;;;;8.07;3.27;;;;;;;6.85;93.00;101676.84;4971608;28;20219;-74
2022/11/03 03:08:29;;;;;;;5.10;2.37;;;;;;;6.89;93.55;101682.19;4972116;28;20196;-74
2022/11/03 03:10:58;;;;;;;7.93;2.63;;;;;;;6.93;92.66;101683.19;4972924;28;20200;-75
2022/11/03 03:13:24;;;;;;;7.70;3.17;;;;;;;6.95;92.54;101676.53;4971742;28;20725;-75
2022/11/03 03:15:59;;;;;;;7.73;3.10;;;;;;;6.95;92.95;101671.44;4973627;28;20216;-74
2022/11/03 03:18:44;;;;;;;12.60;3.77;;;;;;;6.98;93.34;101671.56;4969060;28;20192;-74
2022/11/03 03:21:32;;;;;;;9.77;3.37;;;;;;;6.98;92.84;101672.44;4973323;28;21100;-74
2022/11/03 03:24:14;;;;;;;8.43;3.63;;;;;;;6.99;92.25;101652.91;4972719;28;20295;-74
2022/11/03 03:26:43;;;;;;;10.37;3.23;;;;;;;6.94;92.62;101657.81;4969965;28;20185;-74
2022/11/03 03:29:14;;;;;;;9.40;3.20;;;;;;;6.94;92.86;101647.63;4965873;28;20188;-75
2022/11/03 03:31:46;;;;;;;5.80;3.10;;;;;;;6.95;92.41;101643.44;4969985;28;20189;-73
2022/11/03 03:34:15;;;;;;;5.17;3.10;;;;;;;6.93;93.22;101638.25;4972846;28;20228;-76
2022/11/03 03:36:45;;;;;;;7.20;2.97;;;;;;;6.92;92.51;101643.28;4970503;28;20576;-76
2022/11/03 03:39:13;;;;;;;6.80;3.10;;;;;;;6.93;92.97;101634.81;4971102;28;20292;-75
2022/11/03 03:41:39;;;;;;;8.73;3.17;;;;;;;6.92;92.78;101640.72;4970944;28;20193;-74
2022/11/03 03:44:08;;;;;;;8.97;3.17;;;;;;;6.92;92.71;101641.63;4968573;28;20212;-74
2022/11/03 03:46:48;;;;;;;8.37;3.10;;;;;;;6.91;93.50;101644.09;4967761;28;20223;-74
2022/11/03 03:49:13;;;;;;;6.53;2.90;;;;;;;6.93;93.88;101643.34;4967593;28;20519;-74
2022/11/03 03:51:40;;;;;;;6.47;2.90;;;;;;;6.93;93.88;101645.00;4965942;28;20204;-75
2022/11/03 03:54:06;;;;;;;6.63;2.80;;;;;;;6.88;93.57;101649.91;4969201;28;20220;-75
2022/11/03 03:56:50;;;;;;;6.17;2.90;;;;;;;6.90;93.04;101639.75;4969074;28;20184;-75
2022/11/03 03:59:15;;;;;;;8.97;3.83;;;;;;;6.89;93.65;101645.66;4968267;28;20810;-75
2022/11/03 04:01:41;;;;;;;10.17;2.93;;;;;;;6.87;93.37;101643.03;4971427;28;20262;-74
2022/11/03 04:04:06;;;;;;;9.07;2.90;;;;;;;6.85;94.04;101631.94;4968777;28;20329;-75
2022/11/03 04:06:31;;;;;;;9.00;3.00;;;;;;;6.87;93.81;101632.84;4969094;28;20250;-74
2022/11/03 04:08:57;;;;;;;8.50;2.93;;;;;;;6.84;93.48;101634.41;4966564;28;20184;-74
2022/11/03 04:22:28;;;;;;;8.73;3.03;;;;;;;6.86;94.14;101608.22;4970378;28;20219;-74
2022/11/03 04:24:53;;;;;;;8.23;2.90;;;;;;;6.85;94.57;101598.84;4966678;28;20188;-74
2022/11/03 04:27:30;;;;;;;12.53;3.60;;;;;;;6.86;94.05;101600.59;4968517;28;20258;-73
2022/11/03 04:30:12;;;;;;;7.97;2.97;;;;;;;6.89;94.02;101597.31;4964466;28;20204;-73
2022/11/03 04:32:37;;;;;;;8.20;2.90;;;;;;;6.84;94.36;101597.09;4965625;28;20216;-75
2022/11/03 04:35:23;;;;;;;6.37;2.50;;;;;;;6.94;94.44;101598.38;4971092;28;20203;-74
2022/11/03 04:38:12;;;;;;;10.37;3.80;;;;;;;6.88;94.50;101596.44;4964653;28;20655;-75
2022/11/03 04:40:44;;;;;;;8.10;2.97;;;;;;;6.96;94.90;101594.25;4962337;28;20215;-75
2022/11/03 04:43:12;;;;;;;8.87;3.03;;;;;;;6.98;94.00;101597.72;4965844;28;20213;-76
2022/11/03 04:45:37;;;;;;;12.43;3.10;;;;;;;7.00;93.79;101598.69;4966302;28;20267;-75
2022/11/03 04:48:11;;;;;;;13.50;3.37;;;;;;;7.04;94.31;101600.56;4968631;28;20287;-75
2022/11/03 04:50:36;;;;;;;12.00;3.00;;;;;;;7.04;94.00;101596.34;4966347;28;20193;-74
2022/11/03 04:53:08;;;;;;;9.37;3.10;;;;;;;7.12;93.90;101592.47;4966817;28;20270;-75
2022/11/03 04:55:34;;;;;;;7.80;2.70;;;;;;;7.09;93.69;101596.56;4965946;28;20204;-76
2022/11/03 04:58:03;;;;;;;8.80;3.10;;;;;;;7.07;93.55;101600.69;4963991;28;20193;-75
2022/11/03 05:00:29;;;;;;;13.93;3.00;;;;;;;7.06;94.34;101598.94;4969103;28;20196;-74
2022/11/03 05:02:54;;;;;;;9.47;3.03;;;;;;;7.06;93.30;101594.75;4967564;28;20588;-75
2022/11/03 05:05:22;;;;;;;8.63;2.87;;;;;;;7.08;93.54;101599.88;4964262;28;20540;-75
2022/11/03 05:07:51;;;;;;;9.63;2.73;;;;;;;7.08;93.19;101603.31;4966780;28;20192;-74
2022/11/03 05:10:20;;;;;;;8.43;3.10;;;;;;;7.09;93.86;101594.00;4963854;28;20180;-75
2022/11/03 05:12:46;;;;;;;7.93;3.10;;;;;;;7.08;93.05;101592.25;4969490;28;20224;-75
2022/11/03 05:15:34;;;;;;;7.60;3.13;;;;;;;7.04;93.53;101591.25;4967662;28;20200;-75
2022/11/03 05:18:03;;;;;;;8.23;2.77;;;;;;;7.07;93.84;101583.75;4963593;28;20310;-75
2022/11/03 05:20:36;;;;;;;7.40;2.57;;;;;;;7.05;93.50;101587.03;4968251;28;20279;-75
2022/11/03 05:23:02;;;;;;;8.27;2.67;;;;;;;7.06;93.33;101586.22;4956299;28;20200;-75
2022/11/03 05:25:50;;;;;;;10.33;3.03;;;;;;;7.05;94.31;101572.59;4967050;28;20215;-74
2022/11/03 05:28:38;;;;;;;8.40;2.80;;;;;;;7.04;93.81;101573.41;4966070;28;20220;-75
2022/11/03 05:31:22;;;;;;;13.57;3.77;;;;;;;7.04;93.56;101565.78;4964017;28;20224;-76
2022/11/03 05:33:49;;;;;;;10.33;4.10;;;;;;;7.02;93.93;101567.41;4966129;28;20232;-75
2022/11/03 05:36:19;;;;;;;10.43;3.30;;;;;;;7.06;94.12;101565.84;4965142;28;20196;-75
2022/11/03 05:38:44;;;;;;;10.23;4.63;;;;;;;7.03;93.83;101561.50;4962989;28;20201;-74
2022/11/03 05:41:24;;;;;;;8.13;3.37;;;;;;;7.01;93.91;101552.91;4966926;28;20203;-74
2022/11/03 05:44:00;;;;;;;9.50;4.10;;;;;;;6.99;94.01;101548.53;4965533;28;20243;-75
2022/11/03 05:46:30;;;;;;;12.17;3.53;;;;;;;7.00;93.99;101547.78;4969538;28;20198;-74
2022/11/03 05:48:57;;;;;;;9.70;3.63;;;;;;;6.99;93.59;101544.34;4979091;28;20647;-75
2022/11/03 05:51:41;;;;;;;9.83;2.93;;;;;;;6.99;93.38;101539.25;4964676;28;20203;-77
2022/11/03 05:54:19;;;;;;;10.87;3.07;;;;;;;6.99;93.29;101549.44;4980124;28;20682;-77
2022/11/03 05:56:45;;;;;;;5.57;3.20;;;;;;;6.97;94.17;101540.88;4964779;28;20188;-73
2022/11/03 05:59:14;;;;;;;8.73;2.93;;;;;;;6.97;93.83;101539.97;4969430;28;20247;-73
2022/11/03 06:01:40;;;;;;;10.93;3.70;;;;;;;6.92;94.24;101542.34;4962465;28;20189;-76
2022/11/03 06:04:19;;;;;;;9.60;3.27;;;;;;;6.93;93.76;101538.09;4966258;28;20359;-74
2022/11/03 06:06:53;;;;;;;9.63;3.47;;;;;;;6.94;93.70;101537.28;4966452;28;20192;-76
2022/11/03 06:09:23;;;;;;;11.27;3.17;;;;;;;6.91;93.60;101537.16;4964239;28;20195;-77
2022/11/03 06:11:52;;;;;;;8.13;2.90;;;;;;;6.93;94.42;101535.56;4967620;28;20530;-76
2022/11/03 06:14:29;;;;;;;8.90;3.87;;;;;;;6.94;94.32;101542.38;4965189;28;20857;-77
2022/11/03 06:16:58;;;;;;;6.67;3.03;;;;;;;6.89;94.27;101534.56;4982945;28;20232;-73
2022/11/03 06:19:34;;;;;;;11.17;3.80;;;;;;;6.92;93.70;101538.91;4968380;28;20184;-76
2022/11/03 06:22:23;;;;;;;10.50;2.87;;;;;;;6.89;93.94;101526.91;4963142;28;20275;-75
2022/11/03 06:24:49;;;;;;;14.47;3.27;;;;;;;6.91;94.50;101527.00;4967242;28;20184;-74
2022/11/03 06:27:21;;;;;;;8.77;2.50;;;;;;;6.92;94.04;101526.19;4966998;28;20193;-75
2022/11/03 06:29:54;;;;;;;10.70;2.97;;;;;;;6.92;94.39;101524.53;4967965;28;20220;-76
2022/11/03 06:32:20;;;;;;;8.97;3.10;;;;;;;6.95;94.36;101527.19;4967551;28;20215;-75
2022/11/03 06:34:57;;;;;;;10.53;3.10;;;;;;;7.00;93.83;101520.63;4962488;28;20204;-75
2022/11/03 06:37:33;;;;;;;10.23;3.23;;;;;;;7.04;93.47;101514.00;4968435;28;20188;-77
2022/11/03 06:40:13;;;;;;;7.03;2.53;;;;;;;7.05;93.09;101519.13;4958541;28;20192;-75
2022/11/03 06:42:40;;;;;;;9.53;2.87;;;;;;;7.09;93.78;101515.06;4969108;28;20208;-76
2022/11/03 06:45:22;;;;;;;9.93;2.73;;;;;;;7.11;92.92;101499.06;4968865;28;20207;-76
2022/11/03 06:47:49;;;;;;;9.83;2.60;;;;;;;7.20;93.94;101503.66;4968571;28;20235;-75
2022/11/03 06:50:23;;;;;;;8.97;3.00;;;;;;;7.22;93.49;101502.94;4970168;28;20279;-76
2022/11/03 06:52:50;;;;;;;9.73;3.03;;;;;;;7.31;92.86;101497.34;4968134;28;20212;-77
2022/11/03 06:55:37;;;;;;;7.83;2.73;;;;;;;7.36;92.48;101493.31;4970204;28;20655;-77
2022/11/03 06:58:27;;;;;;;10.00;2.40;;;;;;;7.41;92.87;101481.69;4967266;28;20188;-76
2022/11/03 07:00:56;;;;;;;17.47;3.03;;;;;;;7.46;92.70;101490.38;4968516;28;20649;-75
2022/11/03 07:03:32;;;;;;;10.40;2.13;;;;;;;7.53;93.10;101492.34;4972171;28;20228;-76
2022/11/03 07:06:00;;;;;;;7.13;2.40;;;;;;;7.62;91.40;101490.19;4971700;28;20230;-76
2022/11/03 07:08:30;;;;;;;6.67;2.47;;;;;;;7.66;91.96;101489.50;4956294;28;20204;-77
2022/11/03 07:11:00;;;;;;;6.73;2.20;;;;;;;7.74;91.21;101476.25;4972635;28;20201;-77
2022/11/03 07:13:27;;;;;;;6.37;2.37;;;;;;;7.81;92.04;101490.13;4971263;28;20204;-75
2022/11/03 07:15:53;;;;;;;10.17;2.40;;;;;;;7.85;90.83;101475.03;4973746;28;20200;-77
2022/11/03 07:18:34;;;;;;;10.67;2.83;;;;;;;7.92;91.16;101487.22;4971680;28;20263;-75
2022/11/03 07:21:15;;;;;;;11.70;2.87;;;;;;;7.99;90.70;101483.22;4972595;28;20204;-76
2022/11/03 07:23:40;;;;;;;7.43;2.60;;;;;;;8.04;90.08;101482.59;4972427;28;20247;-75
2022/11/03 07:26:09;;;;;;;6.00;2.30;;;;;;;8.09;90.25;101475.13;4973514;28;20219;-75
2022/11/03 07:28:38;;;;;;;8.77;3.00;;;;;;;8.14;90.05;101477.06;4972054;28;20223;-76
2022/11/03 07:31:19;;;;;;;9.63;3.47;;;;;;;8.23;90.35;101484.22;4969780;28;20227;-77
2022/11/03 07:33:45;;;;;;;8.57;3.00;;;;;;;8.29;89.71;101477.66;4972403;28;20208;-76
2022/11/03 07:36:17;;;;;;;9.53;3.50;;;;;;;8.36;89.58;101483.88;4972458;28;20193;-77
2022/11/03 07:38:45;;;;;;;8.03;2.60;;;;;;;8.42;88.95;101476.44;4969852;28;20247;-75
2022/11/03 07:41:18;;;;;;;7.07;2.60;;;;;;;8.49;89.30;101470.78;4972601;28;20646;-76
2022/11/03 07:43:56;;;;;;;11.07;3.07;;;;;;;8.55;88.77;101469.34;4972676;28;20705;-74
2022/11/03 07:46:23;;;;;;;8.30;2.50;;;;;;;8.62;88.71;101458.50;4973081;28;20199;-74
2022/11/03 07:49:01;;;;;;;9.90;2.77;;;;;;;8.68;88.04;101461.31;4971498;28;20200;-76
2022/11/03 07:51:29;;;;;;;7.83;2.57;;;;;;;8.72;87.97;101465.72;4971666;28;20196;-76
2022/11/03 07:54:22;;;;;;;7.63;2.50;;;;;;;8.81;87.61;101454.97;4973112;28;20239;-75
2022/11/03 07:56:52;;;;;;;9.17;2.43;;;;;;;8.87;87.21;101450.94;4972447;28;20189;-76
2022/11/03 07:59:20;;;;;;;5.33;1.97;;;;;;;8.91;87.47;101455.34;4972891;28;20659;-76
2022/11/03 08:01:54;;;;;;;7.77;2.43;;;;;;;8.97;86.57;101453.00;4968227;28;20200;-76
2022/11/03 08:04:26;;;;;;;11.13;2.63;;;;;;;9.03;86.29;101444.69;4971417;28;20235;-73
2022/11/03 08:06:51;;;;;;;6.97;2.07;;;;;;;9.04;86.44;101436.22;4972571;28;20658;-76
2022/11/03 08:09:18;;;;;;;7.30;2.40;;;;;;;9.10;86.16;101442.41;4969557;28;20195;-73
2022/11/03 08:11:44;;;;;;;7.40;2.47;;;;;;;9.14;85.92;101433.16;4972363;28;20196;-74
2022/11/03 08:14:10;;;;;;;8.13;2.20;;;;;;;9.21;86.30;101433.41;4971147;28;20239;-77
2022/11/03 08:16:36;;;;;;;9.83;2.60;;;;;;;9.20;85.61;101431.69;4969630;28;20224;-77
2022/11/03 08:19:02;;;;;;;5.07;2.27;;;;;;;9.29;85.18;101421.78;4972481;28;20561;-76
2022/11/03 08:21:27;;;;;;;5.47;1.90;;;;;;;9.37;84.74;101410.13;4966469;28;20188;-75
2022/11/03 08:23:53;;;;;;;11.60;2.60;;;;;;;9.40;85.24;101409.38;4970890;28;20217;-77
2022/11/03 08:26:18;;;;;;;5.73;2.03;;;;;;;9.47;84.91;101414.72;4971238;28;20200;-76
2022/11/03 08:28:44;;;;;;;7.10;2.40;;;;;;;9.53;85.18;101411.47;4958867;28;20293;-76
2022/11/03 08:31:09;;;;;;;9.03;2.13;;;;;;;9.55;84.47;101408.19;4971553;28;20212;-76
2022/11/03 08:33:35;;;;;;;9.80;2.27;;;;;;;9.69;83.88;101398.38;4969948;28;20212;-76
2022/11/03 08:36:02;;;;;;;9.00;2.43;;;;;;;9.71;84.39;101397.59;4968875;28;20256;-71
2022/11/03 08:38:28;;;;;;;8.47;2.37;;;;;;;9.82;83.97;101403.06;4970946;28;20196;-74
2022/11/03 08:40:55;;;;;;;9.40;2.30;;;;;;;9.89;84.18;101395.63;4966877;28;20268;-75
2022/11/03 08:43:20;;;;;;;8.00;2.93;;;;;;;9.98;83.46;101395.91;4969039;28;20228;-75
2022/11/03 08:45:46;;;;;;;10.00;2.60;;;;;;;10.06;82.92;101381.69;4969255;28;20193;-74
2022/11/03 08:48:12;;;;;;;9.90;2.77;;;;;;;10.18;82.51;101381.19;4966714;28;20188;-73
2022/11/03 08:50:38;;;;;;;10.60;3.13;;;;;;;10.27;82.45;101382.31;4968653;28;20193;-74
2022/11/03 08:53:03;;;;;;;7.47;2.30;;;;;;;10.19;82.42;101376.09;4968474;28;20789;-73
2022/11/03 08:55:29;;;;;;;9.13;2.40;;;;;;;10.22;82.71;101373.63;4965984;28;20279;-75
2022/11/03 08:57:54;;;;;;;6.00;2.60;;;;;;;10.41;82.08;101369.94;4969985;28;20188;-73
2022/11/03 09:00:19;;;;;;;9.93;3.00;;;;;;;10.45;82.10;101366.59;4967244;28;20188;-72
2022/11/03 09:02:45;;;;;;;11.90;2.73;;;;;;;10.46;81.90;101366.66;4966147;28;20786;-75
2022/11/03 09:05:12;;;;;;;13.47;2.97;;;;;;;10.59;82.10;101372.97;4969939;28;20204;-74
2022/11/03 09:07:38;;;;;;;6.43;2.10;;;;;;;10.68;81.62;101366.41;4964875;28;20624;-75
2022/11/03 09:10:09;;;;;;;9.03;2.50;;;;;;;10.66;81.38;101372.31;4970542;28;20255;-76
2022/11/03 09:12:35;;;;;;;5.63;2.30;;;;;;;10.83;81.27;101366.81;4968020;28;20669;-77
2022/11/03 09:15:01;;;;;;;5.63;2.33;;;;;;;10.83;81.31;101359.13;4966450;28;20208;-74
2022/11/03 09:17:27;;;;;;;5.57;2.30;;;;;;;10.97;80.84;101354.38;4970896;28;20223;-74
2022/11/03 09:19:52;;;;;;;8.90;2.30;;;;;;;11.11;80.60;101340.22;4967457;28;20673;-76
2022/11/03 09:22:18;;;;;;;7.53;2.53;;;;;;;11.23;79.76;101341.41;4965307;28;20248;-75
2022/11/03 09:24:43;;;;;;;7.00;2.50;;;;;;;11.35;79.41;101335.69;4968412;28;20319;-74
2022/11/03 09:27:09;;;;;;;7.33;2.37;;;;;;;11.62;78.75;101331.25;4966099;28;20677;-77
2022/11/03 09:29:34;;;;;;;7.80;2.30;;;;;;;11.57;78.37;101328.53;4966155;28;20654;-77
2022/11/03 09:32:00;;;;;;;5.43;1.90;;;;;;;11.65;78.20;101327.06;4966236;28;20188;-77
2022/11/03 09:34:26;;;;;;;6.87;2.40;;;;;;;11.63;77.87;101318.47;4948342;28;20215;-77
2022/11/03 09:36:51;;;;;;;9.57;2.03;;;;;;;11.67;78.35;101322.84;4969180;28;20205;-78
2022/11/03 09:39:17;;;;;;;6.37;2.17;;;;;;;11.78;78.18;101318.81;4966194;28;20192;-76
2022/11/03 09:41:42;;;;;;;7.70;2.47;;;;;;;11.91;77.71;101317.38;4961788;28;20684;-75
2022/11/03 09:44:08;;;;;;;9.83;2.50;;;;;;;11.98;76.94;101306.41;4967689;28;20235;-73
2022/11/03 09:46:34;;;;;;;6.93;2.17;;;;;;;12.11;76.24;101305.81;4962437;28;20205;-77
2022/11/03 09:49:00;;;;;;;9.23;2.33;;;;;;;12.62;75.54;101307.69;4968874;28;20295;-77
2022/11/03 09:51:27;;;;;;;10.67;3.13;;;;;;;13.59;72.78;101299.06;4966760;28;20243;-75
2022/11/03 09:53:55;;;;;;;7.07;2.17;;;;;;;15.44;64.33;101294.25;4962382;28;20209;-76
2022/11/03 09:56:21;;;;;;;7.03;2.30;;;;;;;16.07;62.80;101276.53;4969204;28;20203;-74
2022/11/03 09:58:47;;;;;;;5.60;2.13;;;;;;;16.88;59.09;101276.75;4962023;28;20208;-75
2022/11/03 10:01:12;;;;;;;6.30;2.20;;;;;;;17.10;57.47;101269.03;4966962;28;20192;-74
2022/11/03 10:03:39;;;;;;;9.33;2.30;;;;;;;17.72;55.09;101271.53;4966703;28;20605;-74
2022/11/03 10:06:05;;;;;;;7.73;2.53;;;;;;;18.33;53.48;101257.50;4964012;28;20204;-75
2022/11/03 10:08:34;;;;;;;7.10;2.20;;;;;;;19.51;49.71;101250.50;4970022;28;20200;-74
2022/11/03 10:11:00;;;;;;;9.67;2.17;;;;;;;20.03;49.17;101252.50;4966157;28;20196;-74
2022/11/03 10:13:46;;;;;;;10.68;2.65;;;;;;;19.78;48.38;101234.63;4968139;28;20625;-75
2022/11/03 10:16:15;;;;;;;8.30;2.40;;;;;;;20.41;47.90;101229.44;4968840;28;20274;-74
2022/11/03 10:18:42;;;;;;;6.20;2.10;;;;;;;21.08;45.94;101237.97;4967565;28;20203;-75
2022/11/03 10:21:17;;;;;;;9.83;2.27;;;;;;;19.98;48.12;101237.81;4969969;28;20196;-74
2022/11/03 10:23:43;;;;;;;6.97;1.90;;;;;;;19.59;49.32;101248.69;4968018;28;20216;-74
2022/11/03 10:26:17;;;;;;;10.40;2.53;;;;;;;19.04;50.47;101243.16;4970430;28;20555;-73
2022/11/03 10:28:59;;;;;;;6.80;2.57;;;;;;;18.70;52.54;101240.84;4966055;28;20222;-72
2022/11/03 10:31:32;;;;;;;7.40;2.03;;;;;;;17.56;56.09;101237.06;4969808;28;20264;-73
2022/11/03 10:33:58;;;;;;;6.37;2.20;;;;;;;17.20;57.50;101244.84;4970061;28;20204;-72
2022/11/03 10:36:26;;;;;;;6.33;2.23;;;;;;;17.75;56.24;101237.84;4968538;28;20200;-74
2022/11/03 10:38:52;;;;;;;7.13;2.30;;;;;;;18.02;55.02;101228.25;4971039;28;20688;-74
2022/11/03 10:41:19;;;;;;;5.77;2.20;;;;;;;17.96;53.69;101230.84;4973519;28;20193;-72
2022/11/03 10:44:11;;;;;;;5.93;2.40;;;;;;;18.51;53.83;101218.50;4973170;28;20223;-73
2022/11/03 10:46:38;;;;;;;6.63;2.07;;;;;;;18.56;54.33;101214.97;4973018;28;20243;-73
2022/11/03 10:49:14;;;;;;;7.37;2.03;;;;;;;18.85;53.54;101219.94;4973591;28;20207;-71
2022/11/03 10:51:41;;;;;;;6.37;2.07;;;;;;;19.48;51.77;101204.63;4972117;28;20596;-75
2022/11/03 10:54:13;;;;;;;5.57;2.10;;;;;;;23.06;44.35;101180.63;4973431;28;20197;-73
2022/11/03 10:56:40;;;;;;;4.65;1.95;;;;;;;23.74;40.73;101176.13;4971130;28;20280;-73
2022/11/03 10:59:08;;;;;;;7.28;1.95;;;;;;;23.61;41.00;101172.19;4969457;28;20197;-75
2022/11/03 11:01:33;;;;;;;4.60;1.92;;;;;;;24.62;39.83;101165.56;4972788;28;20192;-74
2022/11/03 11:03:58;;;;;;;5.85;2.40;;;;;;;21.83;44.13;101173.13;4972403;28;20252;-73
2022/11/03 11:06:28;;;;;;;5.80;2.13;;;;;;;22.11;44.06;101169.03;4973249;28;20193;-74
2022/11/03 11:08:59;;;;;;;6.22;1.90;;;;;;;22.42;42.98;101165.66;4972361;28;20228;-76
2022/11/03 11:11:24;;;;;;;5.78;1.88;;;;;;;22.87;41.71;101162.84;4971598;28;20658;-75
2022/11/03 11:14:23;;;;;;;5.57;2.05;;;;;;;22.68;41.71;101158.97;4972738;28;20206;-74
2022/11/03 11:16:52;;;;;;;6.77;2.03;;;;;;;20.38;47.13;101179.22;4971106;28;20195;-73
2022/11/03 11:19:18;;;;;;;8.40;2.53;;;;;;;19.02;51.03;101168.75;4970125;28;20198;-74
2022/11/03 11:21:46;;;;;;;5.27;2.03;;;;;;;17.89;54.30;101172.16;4973450;28;20195;-74
2022/11/03 11:24:12;;;;;;;7.97;2.10;;;;;;;17.57;56.58;101160.19;4973285;28;20242;-74
2022/11/03 11:26:38;;;;;;;5.80;2.30;;;;;;;17.20;57.45;101166.31;4971181;28;20231;-74
2022/11/03 11:29:07;;;;;;;7.63;2.30;;;;;;;17.67;56.91;101146.34;4973345;28;20228;-74
2022/11/03 11:31:33;;;;;;;9.00;2.53;;;;;;;20.09;50.40;101135.41;4971721;28;20196;-75
2022/11/03 11:34:08;;;;;;;6.10;2.20;;;;;;;20.34;48.17;101122.91;4971325;28;20219;-74
2022/11/03 11:36:44;;;;;;;7.50;2.40;;;;;;;18.38;52.51;101134.69;4971803;28;20225;-74
2022/11/03 11:39:09;;;;;;;5.77;2.07;;;;;;;17.78;54.59;101135.06;4972234;28;20188;-74
2022/11/03 11:42:12;;;;;;;5.73;2.33;;;;;;;17.41;56.05;101133.50;4971701;28;20202;-74
2022/11/03 11:44:53;;;;;;;5.60;2.17;;;;;;;17.98;54.06;101124.59;4971782;28;20303;-74
2022/11/03 11:47:39;;;;;;;4.00;2.13;;;;;;;18.76;52.01;101122.28;4969225;28;20203;-72
2022/11/03 11:50:04;;;;;;;6.43;1.77;;;;;;;19.38;51.32;101109.50;4972875;28;20276;-72
2022/11/03 11:52:30;;;;;;;7.27;2.03;;;;;;;19.82;50.21;101101.13;4970963;28;20288;-74
2022/11/03 11:54:56;;;;;;;5.87;1.77;;;;;;;19.94;49.12;101096.59;4972842;28;20204;-74
2022/11/03 11:57:23;;;;;;;5.37;2.00;;;;;;;19.29;50.98;101090.56;4972716;28;20184;-73